Terminal Aerodrome Forecast
Issued by NWS Hastings, NE

Home | Current Version | Previous Version | Text Only | Print | Product List | Glossary On
Versions: 1 2 3 4 5 6 7 8 9 10 11 12 13 14 15 16 17 18 19 20 21 22 23 24 25 26 27 28 29 30 31 32
000
FTUS43 KGID 201128
TAFGRI
TAF
KGRI 201128Z 2012/2112 18010KT 6SM BR SCT010 BKN080 BKN140
     FM201500 25011KT P6SM SCT015 BKN140
     FM201800 32017G25KT P6SM FEW035 SCT150
     FM202300 31006KT P6SM SKC
     FM210500 23004KT P6SM SKC=

USA.gov is the U.S. government's official web portal to all federal, state and local government web resources and services.